Time;durP1;ratioP1;P1;durP2;ratioP2;P2;SDS_P1;SDS_P2;PMS_P1;PMS_P2;Temp;Humidity;BMP_temperature;BMP_pressure;BME280_temperature;BME280_humidity;BME280_pressure;Samples;Min_cycle;Max_cycle;Signal;HPM_P1;HPM_P2
2022/03/24 00:02:21;;;;;;;37.57;27.30;;;3.30;99.90;;;;;;4945373;28;20904;-54
2022/03/24 00:04:48;;;;;;;37.00;26.77;;;3.20;99.90;;;;;;4944194;28;20906;-52
2022/03/24 00:07:14;;;;;;;39.90;28.30;;;3.20;96.10;;;;;;4948877;28;20490;-52
2022/03/24 00:09:41;;;;;;;38.73;27.83;;;3.10;99.90;;;;;;4953895;28;21296;-52
2022/03/24 00:12:10;;;;;;;35.80;27.27;;;3.00;98.50;;;;;;4952787;28;20544;-51
2022/03/24 00:14:37;;;;;;;36.00;27.17;;;2.90;91.80;;;;;;4951108;28;20462;-50
2022/03/24 00:17:04;;;;;;;40.23;27.40;;;2.80;82.70;;;;;;4950754;28;21136;-50
2022/03/24 00:19:32;;;;;;;40.00;26.80;;;2.70;80.30;;;;;;4948669;28;20983;-50
2022/03/24 00:21:58;;;;;;;32.47;25.27;;;2.70;83.10;;;;;;4953347;28;20549;-51
2022/03/24 00:24:25;;;;;;;37.67;27.60;;;2.60;83.20;;;;;;4950467;28;20956;-49
2022/03/24 00:26:52;;;;;;;38.57;25.67;;;2.50;82.00;;;;;;4950017;28;20553;-49
2022/03/24 00:29:19;;;;;;;34.97;27.63;;;2.50;79.30;;;;;;4947329;28;20554;-50
2022/03/24 00:31:46;;;;;;;41.53;27.07;;;2.40;70.70;;;;;;4951018;28;20463;-50
2022/03/24 00:34:13;;;;;;;34.33;26.83;;;2.30;62.10;;;;;;4947331;28;20478;-50
2022/03/24 00:36:40;;;;;;;33.07;27.10;;;2.30;63.90;;;;;;4949725;28;21042;-50
2022/03/24 00:39:07;;;;;;;40.07;28.00;;;2.30;59.60;;;;;;4948621;28;21024;-49
2022/03/24 00:41:35;;;;;;;40.17;29.43;;;2.20;60.80;;;;;;4949820;28;20497;-50
2022/03/24 00:44:02;;;;;;;40.23;27.63;;;2.20;67.40;;;;;;4949901;28;20462;-49
2022/03/24 00:46:31;;;;;;;33.40;25.20;;;2.10;67.00;;;;;;4950041;28;20534;-49
2022/03/24 00:48:58;;;;;;;39.60;27.30;;;2.10;63.90;;;;;;4948402;28;20466;-50
2022/03/24 00:51:25;;;;;;;34.97;26.33;;;2.00;61.70;;;;;;4949933;28;20486;-49
2022/03/24 00:53:53;;;;;;;39.30;27.27;;;2.00;63.00;;;;;;4950204;28;20553;-49
2022/03/24 00:56:19;;;;;;;35.10;29.10;;;1.90;59.10;;;;;;4947572;28;20541;-48
2022/03/24 00:58:46;;;;;;;36.10;27.60;;;1.90;56.50;;;;;;4949618;28;20619;-49
2022/03/24 01:01:13;;;;;;;33.30;26.17;;;1.80;55.30;;;;;;4951872;28;20596;-51
2022/03/24 01:03:40;;;;;;;32.17;26.40;;;1.80;46.50;;;;;;4949348;28;20468;-50
2022/03/24 01:06:07;;;;;;;34.63;26.87;;;1.80;49.30;;;;;;4951179;28;20589;-50
2022/03/24 01:08:34;;;;;;;42.83;27.20;;;1.80;51.60;;;;;;4951685;28;20517;-52
2022/03/24 01:11:05;;;;;;;33.10;26.90;;;1.70;48.80;;;;;;4948883;28;20530;-55
2022/03/24 01:13:32;;;;;;;38.37;28.50;;;1.60;46.40;;;;;;4949734;28;20462;-53
2022/03/24 01:15:58;;;;;;;38.00;27.17;;;1.60;45.70;;;;;;4949557;28;20477;-53
2022/03/24 01:18:25;;;;;;;35.27;27.37;;;1.50;37.40;;;;;;4949453;28;20557;-52
2022/03/24 01:20:51;;;;;;;34.00;26.27;;;1.50;30.00;;;;;;4947582;28;20499;-52
2022/03/24 01:23:19;;;;;;;35.23;26.17;;;1.50;32.70;;;;;;4947033;28;20557;-52
2022/03/24 01:25:45;;;;;;;32.90;26.60;;;1.40;40.30;;;;;;4951689;28;21050;-53
2022/03/24 01:28:14;;;;;;;32.03;26.63;;;1.40;34.90;;;;;;4948013;28;20549;-52
2022/03/24 01:30:41;;;;;;;32.57;26.57;;;1.30;31.30;;;;;;4948823;28;20548;-52
2022/03/24 01:33:08;;;;;;;33.60;26.57;;;1.20;36.90;;;;;;4948879;28;20518;-54
2022/03/24 01:35:35;;;;;;;34.47;27.43;;;1.10;29.20;;;;;;4948313;28;20497;-52
2022/03/24 01:38:02;;;;;;;33.53;26.97;;;1.00;25.30;;;;;;4948670;28;21047;-49
2022/03/24 01:40:28;;;;;;;39.27;26.80;;;1.00;20.70;;;;;;4945841;28;21087;-49
2022/03/24 01:42:55;;;;;;;39.70;28.60;;;1.00;83.40;;;;;;4951470;28;20563;-52
2022/03/24 01:45:25;;;;;;;42.23;28.40;;;0.90;99.90;;;;;;4949428;28;20466;-52
2022/03/24 01:47:52;;;;;;;39.07;28.60;;;0.70;99.90;;;;;;4947988;28;20553;-52
2022/03/24 01:50:18;;;;;;;31.53;26.23;;;0.70;99.90;;;;;;4948159;28;20586;-54
2022/03/24 01:52:45;;;;;;;35.30;27.33;;;0.60;99.90;;;;;;4949304;28;20464;-53
2022/03/24 01:55:14;;;;;;;36.67;28.03;;;0.60;99.90;;;;;;4948021;28;22459;-53
2022/03/24 01:57:42;;;;;;;37.80;28.80;;;0.70;99.90;;;;;;4947440;28;20463;-53
2022/03/24 02:00:10;;;;;;;35.10;27.27;;;0.60;99.90;;;;;;4951601;28;20565;-53
2022/03/24 02:02:41;;;;;;;34.13;26.70;;;0.60;99.90;;;;;;4949564;28;21219;-49
2022/03/24 02:05:08;;;;;;;39.97;27.83;;;0.50;99.90;;;;;;4949590;28;20525;-49
2022/03/24 02:07:35;;;;;;;33.93;27.20;;;0.50;99.90;;;;;;4947267;28;20553;-51
2022/03/24 02:10:02;;;;;;;36.77;26.33;;;0.40;99.90;;;;;;4946116;28;20577;-50
2022/03/24 02:12:29;;;;;;;33.70;26.20;;;0.40;99.90;;;;;;4946867;28;20466;-51
2022/03/24 02:14:58;;;;;;;36.00;27.77;;;0.40;99.90;;;;;;4953812;28;20466;-50
2022/03/24 02:17:28;;;;;;;34.63;27.37;;;0.30;99.90;;;;;;4948017;28;20466;-52
2022/03/24 02:19:57;;;;;;;38.20;27.63;;;0.30;99.90;;;;;;4947100;28;20568;-51
2022/03/24 02:22:25;;;;;;;31.97;26.67;;;0.30;99.90;;;;;;4945068;28;20482;-50
2022/03/24 02:24:52;;;;;;;32.90;24.93;;;0.30;99.90;;;;;;4952812;28;20563;-51
2022/03/24 02:27:18;;;;;;;34.53;26.50;;;0.20;99.90;;;;;;4948151;28;20558;-50
2022/03/24 02:29:48;;;;;;;33.67;27.33;;;0.20;99.90;;;;;;4948075;28;20678;-51
2022/03/24 02:32:18;;;;;;;36.53;27.60;;;0.10;99.90;;;;;;4947203;28;20458;-51
2022/03/24 02:34:48;;;;;;;36.67;27.80;;;0.10;99.90;;;;;;4951605;28;21040;-52
2022/03/24 02:37:17;;;;;;;34.17;26.83;;;0.00;99.90;;;;;;4952044;28;20557;-52
2022/03/24 02:39:46;;;;;;;35.50;27.73;;;0.00;99.90;;;;;;4951692;28;20517;-52
2022/03/24 02:42:14;;;;;;;31.10;27.00;;;-0.10;99.90;;;;;;4947981;28;20482;-49
2022/03/24 02:44:42;;;;;;;35.97;27.73;;;0.00;99.90;;;;;;4950008;28;20463;-52
2022/03/24 02:47:10;;;;;;;36.20;27.10;;;0.00;99.90;;;;;;4952351;28;20554;-52
2022/03/24 02:49:37;;;;;;;34.73;28.83;;;0.00;99.90;;;;;;4957162;28;20515;-52
2022/03/24 02:52:04;;;;;;;36.10;27.53;;;0.00;99.90;;;;;;4950403;28;20534;-52
2022/03/24 02:54:32;;;;;;;34.93;27.53;;;0.00;99.90;;;;;;4951427;28;20557;-52
2022/03/24 02:57:00;;;;;;;40.07;29.30;;;-0.10;99.90;;;;;;4948694;28;20462;-53
2022/03/24 02:59:49;;;;;;;35.50;27.70;;;-0.10;99.90;;;;;;4947461;28;20537;-52
2022/03/24 03:02:18;;;;;;;37.10;28.70;;;-0.10;99.90;;;;;;4943691;28;20486;-51
2022/03/24 03:04:49;;;;;;;36.00;27.67;;;-0.10;99.90;;;;;;4949523;28;20904;-52
2022/03/24 03:07:16;;;;;;;36.33;28.60;;;-0.10;99.90;;;;;;4947616;28;20557;-52
2022/03/24 03:09:43;;;;;;;39.90;29.40;;;-0.20;99.90;;;;;;4947439;28;20520;-52
2022/03/24 03:12:12;;;;;;;39.40;28.20;;;-0.20;99.90;;;;;;4946603;28;20541;-52
2022/03/24 03:14:39;;;;;;;39.27;29.20;;;-0.20;99.90;;;;;;4947849;28;21071;-52
2022/03/24 03:17:06;;;;;;;36.73;29.33;;;-0.20;99.90;;;;;;4946718;28;20936;-52
2022/03/24 03:19:34;;;;;;;40.27;29.40;;;-0.10;99.90;;;;;;4948264;28;21183;-52
2022/03/24 03:22:00;;;;;;;36.63;29.13;;;-0.20;99.90;;;;;;4946441;28;20578;-52
2022/03/24 03:24:27;;;;;;;37.67;29.20;;;-0.30;99.90;;;;;;4949009;28;20461;-52
2022/03/24 03:26:55;;;;;;;36.60;28.70;;;-0.30;99.90;;;;;;4947074;28;20567;-52
2022/03/24 03:29:23;;;;;;;38.87;28.23;;;-0.30;99.90;;;;;;4947018;28;20458;-53
2022/03/24 03:31:50;;;;;;;38.33;30.77;;;-0.20;99.90;;;;;;4954108;28;20472;-52
2022/03/24 03:34:17;;;;;;;39.33;29.90;;;-0.20;99.90;;;;;;4959596;28;20504;-52
2022/03/24 03:36:44;;;;;;;35.10;27.73;;;-0.20;99.90;;;;;;4952648;28;20469;-52
2022/03/24 03:39:10;;;;;;;41.20;28.53;;;-0.30;99.90;;;;;;4948367;28;20989;-52
2022/03/24 03:41:38;;;;;;;41.20;29.60;;;-0.30;99.90;;;;;;4950130;28;20612;-52
2022/03/24 03:44:06;;;;;;;41.93;29.73;;;-0.30;99.90;;;;;;4951628;28;20458;-52
2022/03/24 03:46:34;;;;;;;38.13;30.00;;;-0.30;99.90;;;;;;4952273;28;20474;-52
2022/03/24 03:49:00;;;;;;;38.73;29.97;;;-0.30;99.90;;;;;;4949477;28;20552;-52
2022/03/24 03:51:27;;;;;;;38.30;29.13;;;-0.30;99.90;;;;;;4951813;28;20517;-52
2022/03/24 03:53:54;;;;;;;42.20;30.00;;;-0.30;99.90;;;;;;4952502;28;20489;-52
2022/03/24 03:56:21;;;;;;;36.10;29.00;;;-0.40;99.90;;;;;;4948697;28;21038;-52
2022/03/24 03:58:48;;;;;;;42.83;29.73;;;-0.40;99.90;;;;;;4949140;28;20467;-52
2022/03/24 04:01:14;;;;;;;42.97;29.60;;;-0.40;99.90;;;;;;4951361;28;20590;-52
2022/03/24 04:03:42;;;;;;;36.80;28.47;;;-0.50;99.90;;;;;;4951161;28;20593;-52
2022/03/24 04:06:11;;;;;;;36.00;28.80;;;-0.50;99.90;;;;;;4950588;28;20470;-52
2022/03/24 04:08:38;;;;;;;39.27;28.73;;;-0.50;99.90;;;;;;4948227;28;21171;-52
2022/03/24 04:11:07;;;;;;;37.57;30.33;;;-0.30;99.90;;;;;;4950045;28;20570;-52
2022/03/24 04:13:34;;;;;;;39.03;30.63;;;-0.30;99.90;;;;;;4951101;28;21118;-52
2022/03/24 04:16:00;;;;;;;37.73;28.80;;;-0.30;99.90;;;;;;4950585;28;20549;-52
2022/03/24 04:18:27;;;;;;;36.13;29.50;;;-0.30;99.90;;;;;;4950892;28;20465;-53
2022/03/24 04:20:56;;;;;;;37.53;30.30;;;-0.30;99.90;;;;;;4949930;28;20481;-52
2022/03/24 04:23:22;;;;;;;39.13;30.10;;;-0.20;99.90;;;;;;4948925;28;20580;-53
2022/03/24 04:25:49;;;;;;;40.30;30.60;;;-0.30;99.90;;;;;;4946939;28;20576;-52
2022/03/24 04:28:16;;;;;;;40.00;29.87;;;-0.30;99.90;;;;;;4952154;28;20568;-52
2022/03/24 04:30:43;;;;;;;40.70;30.37;;;-0.40;99.90;;;;;;4949609;28;20590;-52
2022/03/24 04:33:10;;;;;;;36.40;29.03;;;-0.30;99.90;;;;;;4949022;28;20459;-52
2022/03/24 04:35:37;;;;;;;34.60;28.00;;;-0.40;99.90;;;;;;4950820;28;20466;-52
2022/03/24 04:38:05;;;;;;;39.40;31.60;;;-0.50;99.90;;;;;;4949838;28;20506;-52
2022/03/24 04:40:32;;;;;;;45.00;31.63;;;-0.50;99.90;;;;;;4950758;28;20486;-52
2022/03/24 04:42:58;;;;;;;40.83;31.23;;;-0.60;99.90;;;;;;4949574;28;20478;-52
2022/03/24 04:45:27;;;;;;;41.73;29.70;;;-0.60;99.90;;;;;;4951579;28;20502;-53
2022/03/24 04:47:53;;;;;;;40.47;30.43;;;-0.60;99.90;;;;;;4950200;28;20467;-53
2022/03/24 04:50:20;;;;;;;39.97;30.67;;;-0.50;99.90;;;;;;4951723;28;20565;-53
2022/03/24 04:52:47;;;;;;;38.43;29.23;;;-0.60;99.90;;;;;;4948064;28;21453;-53
2022/03/24 04:55:16;;;;;;;40.47;32.30;;;-0.60;99.90;;;;;;4949881;28;20542;-52
2022/03/24 04:57:43;;;;;;;39.73;29.63;;;-0.60;99.90;;;;;;4948471;28;20490;-52
2022/03/24 05:00:11;;;;;;;57.13;30.40;;;-0.50;99.90;;;;;;4948321;28;20554;-52
2022/03/24 05:02:39;;;;;;;39.80;31.07;;;-0.50;99.90;;;;;;4953203;28;20486;-53
2022/03/24 05:05:07;;;;;;;37.13;29.27;;;-0.50;99.90;;;;;;4949376;28;21046;-52
2022/03/24 05:07:33;;;;;;;44.10;32.37;;;-0.50;99.90;;;;;;4949908;28;20558;-52
2022/03/24 05:10:00;;;;;;;37.93;30.53;;;-0.50;99.90;;;;;;4949161;28;20593;-53
2022/03/24 05:12:28;;;;;;;43.33;31.80;;;-0.50;99.90;;;;;;4946335;28;20499;-52
2022/03/24 05:14:55;;;;;;;35.63;28.73;;;-0.60;99.90;;;;;;4950582;28;20577;-54
2022/03/24 05:17:22;;;;;;;45.83;32.60;;;-0.50;99.90;;;;;;4949010;28;20701;-52
2022/03/24 05:19:49;;;;;;;40.50;30.23;;;-0.60;99.90;;;;;;4951061;28;20482;-53
2022/03/24 05:22:16;;;;;;;38.78;28.90;;;-0.60;99.90;;;;;;4949896;28;20825;-53
2022/03/24 05:24:43;;;;;;;38.57;30.90;;;-0.60;99.90;;;;;;4948100;28;20211;-53
2022/03/24 05:27:10;;;;;;;41.93;32.47;;;-0.60;99.90;;;;;;4948951;28;20462;-53
2022/03/24 05:29:39;;;;;;;38.37;30.97;;;-0.50;99.90;;;;;;4949836;28;20884;-53
2022/03/24 05:32:07;;;;;;;45.60;30.70;;;-0.50;99.90;;;;;;4946307;28;20468;-53
2022/03/24 05:34:34;;;;;;;49.47;35.43;;;-0.50;99.90;;;;;;4949071;28;20561;-53
2022/03/24 05:37:01;;;;;;;50.97;33.80;;;-0.40;99.90;;;;;;4949523;28;20565;-53
2022/03/24 05:39:27;;;;;;;40.33;31.60;;;-0.40;99.90;;;;;;4949353;28;20553;-53
2022/03/24 05:41:54;;;;;;;44.77;34.23;;;-0.30;99.90;;;;;;4949192;28;20492;-52
2022/03/24 05:44:20;;;;;;;43.77;31.97;;;-0.30;99.90;;;;;;4955598;28;20474;-52
2022/03/24 05:46:49;;;;;;;45.40;35.10;;;-0.20;99.90;;;;;;4961976;28;20969;-52
2022/03/24 05:49:17;;;;;;;43.77;34.00;;;-0.20;99.90;;;;;;4956032;28;20455;-52
2022/03/24 05:51:44;;;;;;;44.03;32.93;;;-0.20;99.90;;;;;;4958633;28;20555;-51
2022/03/24 05:54:11;;;;;;;44.20;34.17;;;0.00;99.90;;;;;;4953815;28;20438;-53
2022/03/24 05:56:38;;;;;;;54.00;35.93;;;0.20;99.90;;;;;;4955750;28;20467;-52
2022/03/24 05:59:05;;;;;;;45.40;35.17;;;0.40;99.90;;;;;;4957814;28;20540;-52
2022/03/24 06:01:33;;;;;;;44.67;34.37;;;0.70;99.90;;;;;;4963106;28;20592;-52
2022/03/24 06:04:01;;;;;;;47.73;32.97;;;0.80;99.90;;;;;;4953630;28;20478;-53
2022/03/24 06:06:28;;;;;;;48.40;33.20;;;0.90;99.90;;;;;;4954441;28;20533;-52
2022/03/24 06:08:56;;;;;;;49.97;33.93;;;1.00;99.90;;;;;;4953950;28;20556;-52
2022/03/24 06:11:24;;;;;;;52.63;33.63;;;1.10;99.90;;;;;;4957936;28;20574;-53
2022/03/24 06:13:50;;;;;;;47.10;33.20;;;1.30;99.90;;;;;;4953834;29;20520;-51
2022/03/24 06:16:18;;;;;;;43.27;32.90;;;1.40;99.90;;;;;;4946274;28;20564;-51
2022/03/24 06:18:45;;;;;;;50.73;33.00;;;1.50;99.90;;;;;;4956368;28;20820;-52
2022/03/24 06:21:14;;;;;;;46.50;35.10;;;1.60;99.90;;;;;;4959084;28;20469;-52
2022/03/24 06:23:41;;;;;;;53.90;37.27;;;1.60;99.90;;;;;;4957965;28;20486;-52
2022/03/24 06:26:08;;;;;;;41.30;34.23;;;1.80;99.90;;;;;;4952528;28;20530;-52
2022/03/24 06:28:35;;;;;;;42.70;32.83;;;1.90;99.90;;;;;;4944349;29;20969;-52
2022/03/24 06:31:01;;;;;;;51.50;34.50;;;2.10;99.90;;;;;;4948711;28;20477;-52
2022/03/24 06:33:28;;;;;;;59.67;42.80;;;2.20;99.90;;;;;;4945865;28;20969;-52
2022/03/24 06:35:54;;;;;;;46.73;35.30;;;2.30;99.90;;;;;;4953104;28;20555;-52
2022/03/24 06:38:23;;;;;;;49.07;34.67;;;2.50;99.90;;;;;;4946780;28;20577;-51
2022/03/24 06:40:50;;;;;;;42.80;34.00;;;2.50;99.90;;;;;;4955667;28;20492;-52
2022/03/24 06:43:16;;;;;;;43.63;33.27;;;2.60;99.90;;;;;;4941143;28;20578;-52
2022/03/24 06:45:43;;;;;;;49.57;34.57;;;2.80;99.90;;;;;;4956987;28;20545;-51
2022/03/24 06:48:09;;;;;;;53.57;35.40;;;3.00;99.90;;;;;;4953544;28;20454;-52
2022/03/24 06:50:37;;;;;;;50.10;33.40;;;3.40;99.90;;;;;;4945917;28;20554;-52
2022/03/24 06:53:04;;;;;;;51.70;35.07;;;3.60;20.20;;;;;;4944262;28;20462;-52
2022/03/24 06:55:32;;;;;;;43.37;35.47;;;3.70;23.90;;;;;;4954595;28;20940;-52
2022/03/24 06:57:59;;;;;;;49.20;35.70;;;3.80;26.50;;;;;;4943692;28;21506;-52
2022/03/24 07:00:25;;;;;;;52.27;36.80;;;3.80;30.70;;;;;;4953243;28;20610;-52
2022/03/24 07:02:52;;;;;;;49.83;35.83;;;3.90;29.90;;;;;;4963978;28;20580;-52
2022/03/24 07:05:19;;;;;;;49.63;37.97;;;3.90;30.70;;;;;;4949740;28;20458;-52
2022/03/24 07:07:46;;;;;;;50.37;34.97;;;4.00;34.00;;;;;;4947405;28;20490;-52
2022/03/24 07:10:12;;;;;;;45.00;33.80;;;4.20;33.80;;;;;;4951965;28;20612;-52
2022/03/24 07:12:41;;;;;;;44.20;33.00;;;4.40;37.30;;;;;;4960105;28;20525;-52
2022/03/24 07:15:08;;;;;;;47.53;36.80;;;4.50;38.70;;;;;;4954484;28;20457;-51
2022/03/24 07:17:35;;;;;;;49.20;37.77;;;4.80;46.20;;;;;;4961717;28;20463;-52
2022/03/24 07:20:03;;;;;;;54.23;36.30;;;5.30;55.00;;;;;;4957665;28;20490;-52
2022/03/24 07:22:32;;;;;;;47.63;36.63;;;5.90;66.40;;;;;;4963209;28;21017;-52
2022/03/24 07:24:59;;;;;;;44.50;34.20;;;6.30;86.90;;;;;;4951660;28;20466;-52
2022/03/24 07:27:25;;;;;;;49.70;35.77;;;6.80;99.90;;;;;;4956775;28;20467;-52
2022/03/24 07:29:53;;;;;;;49.77;37.73;;;7.20;99.90;;;;;;4962214;28;22475;-52
2022/03/24 07:32:20;;;;;;;54.03;35.70;;;7.60;99.90;;;;;;4953784;28;20562;-52
2022/03/24 07:34:46;;;;;;;49.43;34.87;;;7.90;99.90;;;;;;4951573;28;20922;-52
2022/03/24 07:37:14;;;;;;;46.70;34.83;;;7.70;99.90;;;;;;4956941;28;20541;-52
2022/03/24 07:39:41;;;;;;;43.30;33.43;;;8.10;99.90;;;;;;4957002;28;20541;-52
2022/03/24 07:42:08;;;;;;;46.57;34.90;;;8.40;99.90;;;;;;4953438;28;20548;-53
2022/03/24 07:44:35;;;;;;;48.73;36.50;;;8.70;99.90;;;;;;4952990;28;20450;-53
2022/03/24 07:47:03;;;;;;;54.70;35.97;;;8.90;99.90;;;;;;4956461;29;20549;-52
2022/03/24 07:49:30;;;;;;;43.50;32.90;;;8.80;99.90;;;;;;4955767;28;20823;-54
2022/03/24 07:51:57;;;;;;;54.83;35.13;;;8.60;99.90;;;;;;4954023;29;20938;-52
2022/03/24 07:54:47;;;;;;;49.07;35.43;;;9.00;99.90;;;;;;4948970;28;20466;-52
2022/03/24 07:57:14;;;;;;;44.60;32.87;;;9.30;99.90;;;;;;4947830;28;20951;-52
2022/03/24 07:59:41;;;;;;;48.10;34.77;;;9.40;99.90;;;;;;4952112;28;21070;-51
2022/03/24 08:02:09;;;;;;;48.00;33.73;;;9.80;99.90;;;;;;4945387;28;21030;-52
2022/03/24 08:04:37;;;;;;;47.17;33.40;;;9.70;99.90;;;;;;4950525;28;20486;-52
2022/03/24 08:07:05;;;;;;;43.70;33.20;;;10.30;99.90;;;;;;4953500;28;20470;-52
2022/03/24 08:09:32;;;;;;;54.03;33.80;;;10.40;99.90;;;;;;4952119;28;20461;-52
2022/03/24 08:11:59;;;;;;;47.53;33.20;;;10.50;99.90;;;;;;4956147;29;20830;-52
2022/03/24 08:14:26;;;;;;;42.50;32.00;;;10.50;99.90;;;;;;4952282;29;20447;-52
2022/03/24 08:16:53;;;;;;;42.53;29.87;;;10.50;99.90;;;;;;4953517;28;21013;-52
2022/03/24 08:19:21;;;;;;;45.67;31.07;;;10.70;99.90;;;;;;4955605;28;20461;-53
2022/03/24 08:21:48;;;;;;;65.90;32.90;;;10.80;99.90;;;;;;4954685;28;20541;-52
2022/03/24 08:24:14;;;;;;;43.77;32.03;;;10.80;99.90;;;;;;4938277;28;20494;-52
2022/03/24 08:26:41;;;;;;;40.40;31.67;;;11.00;99.90;;;;;;4941470;28;20461;-52
2022/03/24 08:29:08;;;;;;;41.97;30.77;;;11.00;99.90;;;;;;4939202;28;20470;-52
2022/03/24 08:31:34;;;;;;;44.20;32.30;;;11.10;99.90;;;;;;4950219;28;20490;-51
2022/03/24 08:34:01;;;;;;;44.53;32.23;;;11.20;99.90;;;;;;4950353;28;21026;-52
2022/03/24 08:36:29;;;;;;;45.60;33.03;;;11.20;99.90;;;;;;4953446;28;20541;-53
2022/03/24 08:38:56;;;;;;;43.87;30.57;;;11.40;99.90;;;;;;4952804;28;20544;-53
2022/03/24 08:41:23;;;;;;;46.33;31.20;;;11.40;99.90;;;;;;4952139;28;20485;-52
2022/03/24 08:43:50;;;;;;;41.70;29.27;;;11.80;99.90;;;;;;4954810;28;20486;-52
2022/03/24 08:46:17;;;;;;;45.20;30.37;;;12.00;99.90;;;;;;4957769;28;20557;-53
2022/03/24 08:48:43;;;;;;;38.13;30.40;;;12.00;99.90;;;;;;4956208;28;20505;-52
2022/03/24 08:51:11;;;;;;;39.87;28.90;;;12.20;99.90;;;;;;4954728;28;20581;-52
2022/03/24 08:53:38;;;;;;;41.73;27.57;;;12.70;99.90;;;;;;4947180;28;20463;-53
2022/03/24 08:56:05;;;;;;;39.60;27.47;;;13.20;99.90;;;;;;4958069;28;20520;-53
2022/03/24 08:58:32;;;;;;;36.40;26.03;;;13.70;99.90;;;;;;4956731;28;20528;-52
2022/03/24 09:00:58;;;;;;;40.03;26.73;;;14.00;99.90;;;;;;4956765;28;20569;-54
2022/03/24 09:03:26;;;;;;;41.10;27.73;;;14.00;99.90;;;;;;4946968;28;20908;-52
2022/03/24 09:05:52;;;;;;;35.93;27.50;;;14.20;99.90;;;;;;4954989;28;20479;-53
2022/03/24 09:08:19;;;;;;;36.50;26.57;;;14.80;99.90;;;;;;4951534;28;20962;-53
2022/03/24 09:10:50;;;;;;;39.03;27.80;;;14.80;99.90;;;;;;4954285;28;20577;-51
2022/03/24 09:13:17;;;;;;;40.47;26.50;;;15.10;99.90;;;;;;4952862;28;20458;-53
2022/03/24 09:15:44;;;;;;;32.87;24.27;;;15.90;99.90;;;;;;4965032;28;20477;-52
2022/03/24 09:18:12;;;;;;;31.43;23.17;;;15.90;99.90;;;;;;4956857;28;20468;-52
2022/03/24 09:20:39;;;;;;;34.37;24.63;;;15.10;99.90;;;;;;4952884;28;20490;-53
2022/03/24 09:23:07;;;;;;;35.27;25.23;;;16.20;99.90;;;;;;4961386;28;20577;-53
2022/03/24 09:25:33;;;;;;;32.57;22.50;;;14.80;99.90;;;;;;4953491;28;20475;-52
2022/03/24 09:28:01;;;;;;;33.90;21.57;;;16.00;99.90;;;;;;4961167;28;20453;-53
2022/03/24 09:30:28;;;;;;;36.67;23.93;;;15.90;99.90;;;;;;4958723;28;20561;-53
2022/03/24 09:32:54;;;;;;;29.57;20.97;;;16.70;99.90;;;;;;4965690;28;20545;-52
2022/03/24 09:35:21;;;;;;;33.33;23.40;;;16.80;99.90;;;;;;4952539;28;20549;-52
2022/03/24 09:37:47;;;;;;;29.60;19.77;;;17.10;99.90;;;;;;4960488;28;20497;-52
2022/03/24 09:40:15;;;;;;;25.00;19.10;;;17.10;99.90;;;;;;4955028;28;20490;-52
2022/03/24 09:42:42;;;;;;;26.97;20.07;;;18.10;99.90;;;;;;4949594;28;20569;-52
2022/03/24 09:45:13;;;;;;;26.37;19.97;;;17.40;99.90;;;;;;4958438;28;20489;-52
2022/03/24 09:47:40;;;;;;;26.43;19.93;;;17.90;99.90;;;;;;4955672;28;20462;-52
2022/03/24 09:50:09;;;;;;;26.07;19.57;;;17.80;99.90;;;;;;4955390;28;20521;-52
2022/03/24 09:52:35;;;;;;;35.73;20.73;;;17.20;99.90;;;;;;4959077;28;20466;-52
2022/03/24 09:55:02;;;;;;;22.77;18.27;;;17.90;99.90;;;;;;4966222;28;21051;-52
2022/03/24 09:57:29;;;;;;;27.30;18.10;;;17.30;99.90;;;;;;4955467;28;20463;-52
2022/03/24 09:59:56;;;;;;;19.90;14.93;;;18.00;99.90;;;;;;4956200;28;20572;-53
2022/03/24 10:02:24;;;;;;;22.47;18.30;;;18.10;99.90;;;;;;4949460;28;20549;-51
2022/03/24 10:04:52;;;;;;;24.57;16.80;;;19.00;99.90;;;;;;4959243;28;20489;-52
2022/03/24 10:07:20;;;;;;;24.53;17.00;;;18.50;99.90;;;;;;4958033;28;20551;-52
2022/03/24 10:09:48;;;;;;;17.87;13.33;;;17.50;99.90;;;;;;4956323;28;20578;-52
2022/03/24 10:12:19;;;;;;;22.03;15.70;;;18.50;99.90;;;;;;4955701;28;20560;-52
2022/03/24 10:14:56;;;;;;;19.87;14.77;;;18.60;99.90;;;;;;4948926;28;20541;-51
2022/03/24 10:17:24;;;;;;;19.93;15.87;;;18.20;99.90;;;;;;4946179;28;20561;-52
2022/03/24 10:19:59;;;;;;;27.67;16.27;;;18.20;99.90;;;;;;4946311;28;20468;-53
2022/03/24 10:22:26;;;;;;;23.67;16.43;;;18.00;99.90;;;;;;4950955;28;20552;-53
2022/03/24 10:24:53;;;;;;;22.20;14.63;;;18.60;99.90;;;;;;4950129;28;20577;-53
2022/03/24 10:27:25;;;;;;;18.77;13.90;;;18.40;99.90;;;;;;4950533;28;20550;-53
2022/03/24 10:29:57;;;;;;;17.57;14.00;;;18.80;99.90;;;;;;4951983;28;20513;-51
2022/03/24 10:32:28;;;;;;;17.23;12.67;;;18.50;99.90;;;;;;4952449;28;20520;-53
2022/03/24 10:34:58;;;;;;;21.30;14.47;;;19.00;99.90;;;;;;4948977;28;20557;-53
2022/03/24 10:37:27;;;;;;;20.93;14.13;;;18.30;99.90;;;;;;4954358;28;20537;-51
2022/03/24 10:40:02;;;;;;;19.77;11.70;;;17.90;99.90;;;;;;4951533;28;20577;-52
2022/03/24 10:42:31;;;;;;;14.93;9.90;;;17.60;99.90;;;;;;4950104;28;20454;-53
2022/03/24 10:45:13;;;;;;;29.00;13.33;;;18.60;99.90;;;;;;4947425;29;20521;-52
2022/03/24 10:47:43;;;;;;;31.93;13.00;;;18.30;99.90;;;;;;4952255;29;20465;-52
2022/03/24 10:50:24;;;;;;;18.60;12.93;;;19.00;99.90;;;;;;4951682;28;20553;-53
2022/03/24 10:52:51;;;;;;;20.07;14.93;;;18.80;99.90;;;;;;4934432;29;20846;-53
2022/03/24 10:55:27;;;;;;;16.47;13.40;;;19.70;99.90;;;;;;4952936;28;20450;-52
2022/03/24 10:57:54;;;;;;;19.20;12.50;;;18.50;99.90;;;;;;4967755;28;20533;-53
2022/03/24 11:00:22;;;;;;;14.47;11.70;;;19.00;99.90;;;;;;4971821;28;20477;-53
2022/03/24 11:02:50;;;;;;;19.67;12.07;;;18.70;99.90;;;;;;4953093;28;20545;-52
2022/03/24 11:05:17;;;;;;;24.33;11.80;;;18.20;99.90;;;;;;4955088;28;20576;-52
2022/03/24 11:07:51;;;;;;;18.23;13.00;;;17.40;99.90;;;;;;4951088;28;20537;-52
2022/03/24 11:10:18;;;;;;;16.53;12.47;;;17.00;99.90;;;;;;4951821;29;20492;-52
2022/03/24 11:12:45;;;;;;;15.47;11.27;;;17.00;99.90;;;;;;4949859;29;20467;-53
2022/03/24 11:15:12;;;;;;;15.73;12.30;;;16.50;99.90;;;;;;4945844;29;20549;-50
2022/03/24 11:17:40;;;;;;;18.20;12.80;;;16.40;99.90;;;;;;4951619;28;20461;-50
2022/03/24 11:20:22;;;;;;;16.50;12.17;;;16.30;99.90;;;;;;4951137;28;20566;-51
2022/03/24 11:22:52;;;;;;;25.07;10.93;;;16.50;99.90;;;;;;4959949;28;22034;-51
2022/03/24 11:25:20;;;;;;;19.03;12.37;;;16.30;99.90;;;;;;4948132;28;20580;-50
2022/03/24 11:27:48;;;;;;;16.50;10.83;;;16.50;99.90;;;;;;4949663;28;20470;-50
2022/03/24 11:30:16;;;;;;;16.53;11.50;;;16.50;99.90;;;;;;4949480;28;21071;-50
2022/03/24 11:32:45;;;;;;;15.43;10.43;;;16.30;99.90;;;;;;4951438;28;20458;-50
2022/03/24 11:35:13;;;;;;;15.47;11.50;;;16.90;99.90;;;;;;4950676;28;20498;-50
2022/03/24 11:37:41;;;;;;;16.43;10.70;;;17.00;99.90;;;;;;4951157;28;20549;-51
2022/03/24 11:40:10;;;;;;;15.17;10.60;;;16.50;99.90;;;;;;4948203;28;20564;-51
2022/03/24 11:42:45;;;;;;;18.10;10.53;;;17.20;99.90;;;;;;4945952;28;20914;-52
2022/03/24 11:45:19;;;;;;;19.00;12.80;;;17.60;99.90;;;;;;4949021;28;20498;-51
2022/03/24 11:47:55;;;;;;;18.80;11.93;;;16.60;99.90;;;;;;4953067;28;20466;-50
2022/03/24 11:50:38;;;;;;;18.67;11.03;;;16.80;99.90;;;;;;4949243;28;20855;-51
2022/03/24 11:53:14;;;;;;;18.77;11.73;;;16.40;99.90;;;;;;4948293;28;20896;-50
2022/03/24 11:55:45;;;;;;;17.13;11.00;;;16.40;99.90;;;;;;4950888;28;20549;-49
2022/03/24 11:58:12;;;;;;;17.30;11.30;;;16.30;99.90;;;;;;4949356;28;20571;-51
2022/03/24 12:00:42;;;;;;;14.50;10.20;;;16.30;99.90;;;;;;4949237;28;20572;-52
2022/03/24 12:03:41;;;;;;;13.97;10.17;;;16.50;99.90;;;;;;4955731;28;20541;-51
2022/03/24 12:06:11;;;;;;;13.70;10.80;;;16.70;99.90;;;;;;4951398;28;20462;-51
2022/03/24 12:08:45;;;;;;;21.40;13.53;;;16.30;99.90;;;;;;4954080;28;20557;-51
2022/03/24 12:11:39;;;;;;;15.53;11.00;;;16.30;99.90;;;;;;4953485;28;20580;-51
2022/03/24 12:14:08;;;;;;;17.00;11.50;;;16.60;99.90;;;;;;4952119;28;20462;-51
2022/03/24 12:16:37;;;;;;;25.07;13.47;;;16.80;99.90;;;;;;4955536;28;20959;-51
2022/03/24 12:19:04;;;;;;;18.63;12.70;;;16.80;99.90;;;;;;4953459;28;20473;-50
2022/03/24 12:21:33;;;;;;;18.00;12.10;;;16.60;99.90;;;;;;4947756;28;20585;-51
2022/03/24 12:24:07;;;;;;;18.50;12.30;;;16.70;99.90;;;;;;4947498;28;20493;-52
2022/03/24 12:26:38;;;;;;;20.97;11.20;;;16.80;99.90;;;;;;4954175;28;20461;-51
2022/03/24 12:29:20;;;;;;;14.87;11.23;;;17.10;99.90;;;;;;4946630;28;20475;-50
2022/03/24 12:31:57;;;;;;;16.67;11.17;;;17.20;99.90;;;;;;4951422;28;20466;-50
2022/03/24 12:34:28;;;;;;;18.40;11.90;;;17.30;99.90;;;;;;4955063;28;20537;-50
2022/03/24 12:36:56;;;;;;;18.33;12.17;;;17.70;99.90;;;;;;4948563;28;20582;-51